CSCL Fuzhou — ELYA7 — position and weather

sailwx.info

Track history (hours):
 
Tides and Currents Weather Stations Pressure Air Temp Water Temp Dewpoint Dewpoint Depression Visibility Wind Speed Wind Dir Waves Ship Positions

CSCL Fuzhou

Last reported at 2017-May-18 04:39 UTC. Time now 2017-May-23 17:03 UTC.
Position N 01°14' E 104°01'.

Length 207.4 m; beam 29.8 m; draft 11.4 m.

Type: Ship (hazmat cat A). MMSI: 636016483.

Date/timePositionNaut miles runAvg speedWind from/ knotsBaromVisibWave heightAir tempDewpointWater temp
2017-May-18 04:39N 01°14' E 104°01'318.1
2017-May-18 04:28N 01°13' E 103°58'818.2
2017-May-18 04:00N 01°11' E 103°50'918.9
2017-May-18 03:30N 01°05' E 103°42'714.9
2017-May-18 03:00N 01°05' E 103°35'815.4
2017-May-18 02:30N 01°12' E 103°32'612.9
2017-May-18 02:01N 01°19' E 103°33'3 7.0
2017-May-18 01:30N 01°22' E 103°32'0 0.2
2017-May-18 00:45N 01°22' E 103°33'0 0.0
2017-May-18 00:21N 01°22' E 103°33'0 0.0
2017-May-17 23:51N 01°22' E 103°33'0 0.0
2017-May-17 23:27N 01°22' E 103°33'0 0.0
2017-May-17 22:48N 01°22' E 103°33'0 0.0
2017-May-17 22:18N 01°22' E 103°33'0 0.0
2017-May-17 21:57N 01°22' E 103°33'0 0.0
2017-May-17 21:30N 01°22' E 103°33'0 0.0
2017-May-17 20:57N 01°22' E 103°33'0 0.0
2017-May-17 20:30N 01°22' E 103°33'0 0.0
2017-May-17 19:57N 01°22' E 103°33'0 0.0
2017-May-17 19:27N 01°22' E 103°33'0 0.0
2017-May-17 18:12N 01°22' E 103°33'0 0.0
2017-May-17 17:57N 01°22' E 103°33'0 0.0
2017-May-17 17:30N 01°22' E 103°33'0 0.0
2017-May-17 16:57N 01°22' E 103°33'0 0.0
2017-May-17 16:30N 01°22' E 103°33'0 0.0
2017-May-17 15:45N 01°22' E 103°33'0 0.0
2017-May-17 15:27N 01°22' E 103°33'0 0.0
2017-May-17 14:51N 01°22' E 103°33'0 0.0
2017-May-17 14:24N 01°22' E 103°33'0 0.0
2017-May-17 13:30N 01°22' E 103°33'0 0.0
2017-May-17 12:57N 01°22' E 103°33'0 0.0
2017-May-17 12:24N 01°22' E 103°33'0 0.0
2017-May-17 11:57N 01°22' E 103°33'0 0.0
2017-May-17 11:27N 01°22' E 103°33'0 0.0
2017-May-17 10:54N 01°22' E 103°33'0 0.2
2017-May-17 10:30N 01°22' E 103°33'0 0.4
2017-May-17 09:53N 01°22' E 103°33'0 0.0
2017-May-17 09:26N 01°22' E 103°33'0 0.0
2017-May-17 08:59N 01°22' E 103°33'0 0.0
2017-May-17 08:29N 01°22' E 103°33'0 0.0
2017-May-17 07:56N 01°22' E 103°33'0 0.0
2017-May-17 07:26N 01°22' E 103°33'0 0.0
2017-May-17 06:59N 01°22' E 103°33'0 0.0
2017-May-17 05:50N 01°22' E 103°33'0 0.0
2017-May-17 05:23N 01°22' E 103°33'0 0.0
2017-May-17 04:26N 01°22' E 103°33'0 0.0
2017-May-17 03:56N 01°22' E 103°33'0 0.0
2017-May-17 03:11N 01°22' E 103°33'0 0.0
2017-May-17 02:59N 01°22' E 103°33'0 0.0
2017-May-17 02:29N 01°22' E 103°33'0 0.0
2017-May-17 01:59N 01°22' E 103°33'0 0.7
2017-May-17 01:30N 01°22' E 103°33'5 9.7
2017-May-17 01:00N 01°17' E 103°33'510.7
2017-May-17 00:30N 01°12' E 103°31'4 8.1
2017-May-16 23:59N 01°11' E 103°27'3 6.3
2017-May-16 23:27N 01°12' E 103°24'0 0.5
2017-May-16 23:00N 01°12' E 103°24'2 4.6
2017-May-16 22:30N 01°14' E 103°23'4 7.6
2017-May-16 22:00N 01°16' E 103°20'2014.3
2017-May-16 20:37N 01°28' E 103°04'216.1
2017-May-16 20:29N 01°29' E 103°02'3516.2
2017-May-16 18:20N 01°46' E 102°32'516.7
2017-May-16 18:00N 01°48' E 102°27'816.9
2017-May-16 17:30N 01°52' E 102°19'23416.2
2017-May-16 03:01N 05°06' E 100°07'115.8
2017-May-16 02:58N 05°07' E 100°07'715.6
2017-May-16 02:30N 05°14' E 100°05'815.8
2017-May-16 02:00N 05°22' E 100°05'916.8
2017-May-16 01:27N 05°31' E 100°06'1213.0
2017-May-16 00:32N 05°31' E 100°18'112.6
2017-May-16 00:26N 05°30' E 100°19'410.3
2017-May-16 00:00N 05°26' E 100°21'1 1.3
2017-May-15 23:04N 05°25' E 100°22'0 0.0
2017-May-15 22:58N 05°25' E 100°22'0 0.0
2017-May-15 22:28N 05°25' E 100°22'0 0.0
2017-May-15 21:58N 05°25' E 100°22'0 0.0
2017-May-15 21:28N 05°25' E 100°22'0 0.0
2017-May-15 20:52N 05°25' E 100°22'0 0.0
2017-May-15 20:22N 05°25' E 100°22'0 0.0
2017-May-15 19:52N 05°25' E 100°22'0 0.0
2017-May-15 19:04N 05°25' E 100°22'0 0.0
2017-May-15 17:40N 05°25' E 100°22'0 0.0
2017-May-15 17:04N 05°25' E 100°22'0 0.0
2017-May-15 16:52N 05°25' E 100°22'0 0.0
2017-May-15 16:28N 05°25' E 100°22'0 0.0
2017-May-15 15:58N 05°25' E 100°22'0 0.0
2017-May-15 15:28N 05°25' E 100°22'0 0.0
2017-May-15 14:58N 05°25' E 100°22'0 0.0
2017-May-15 11:40N 05°25' E 100°22'0 0.0
2017-May-15 10:52N 05°25' E 100°22'0 0.0
2017-May-15 10:10N 05°25' E 100°22'0 0.0
2017-May-15 09:58N 05°25' E 100°22'0 0.0
2017-May-15 09:04N 05°25' E 100°22'0 0.0
2017-May-15 08:52N 05°25' E 100°22'0 0.0
2017-May-15 08:28N 05°25' E 100°22'0 0.0
2017-May-15 07:04N 05°25' E 100°22'0 0.0
2017-May-15 06:34N 05°25' E 100°22'0 0.0
2017-May-15 06:28N 05°25' E 100°22'0 0.0
2017-May-15 05:58N 05°25' E 100°22'0 0.0
2017-May-15 04:34N 05°25' E 100°22'0 0.1
2017-May-15 04:28N 05°25' E 100°22'0 0.0
2017-May-15 03:52N 05°25' E 100°22'0 0.0
2017-May-15 03:28N 05°25' E 100°22'0 0.0
2017-May-15 01:04N 05°25' E 100°22'0 0.0
2017-May-15 00:58N 05°25' E 100°22'0 0.0
2017-May-15 00:28N 05°25' E 100°22'0 0.0
2017-May-14 23:22N 05°25' E 100°22'0 0.5
2017-May-14 23:00N 05°25' E 100°22'3 6.1
2017-May-14 22:30N 05°28' E 100°21'611.0
2017-May-14 21:59N 05°33' E 100°17'713.5
2017-May-14 21:30N 05°35' E 100°11'910.8
2017-May-14 20:38N 05°28' E 100°04'214.9
2017-May-14 20:30N 05°26' E 100°04'2818.2
2017-May-14 18:56N 04°58' E 100°09'220 7.8
2017-May-13 14:52N 01°58' E 102°15'616.6
2017-May-13 14:29N 01°55' E 102°21'8017.5
2017-May-13 09:56N 01°13' E 103°29'818.5
2017-May-13 09:31N 01°11' E 103°37'917.6
2017-May-13 09:00N 01°09' E 103°45'816.2
2017-May-13 08:30N 01°13' E 103°52'3 6.8
2017-May-13 08:00N 01°16' E 103°50'0 0.2
2017-May-13 07:23N 01°16' E 103°50'0 0.0
2017-May-13 06:56N 01°16' E 103°50'0 0.0
2017-May-13 06:26N 01°16' E 103°50'0 0.0
2017-May-13 05:56N 01°16' E 103°50'0 0.0
2017-May-13 05:26N 01°16' E 103°50'0 0.0
2017-May-13 04:56N 01°16' E 103°50'0 0.0
2017-May-13 04:26N 01°16' E 103°50'0 0.0
2017-May-13 03:59N 01°16' E 103°50'0 0.0
2017-May-13 03:26N 01°16' E 103°50'0 0.0
2017-May-13 02:56N 01°16' E 103°50'0 0.0
2017-May-13 02:20N 01°16' E 103°50'0 0.0
2017-May-13 01:56N 01°16' E 103°50'0 0.0
2017-May-13 01:29N 01°16' E 103°50'0 0.0
2017-May-13 00:59N 01°16' E 103°50'0 0.0
2017-May-13 00:20N 01°16' E 103°50'0 0.0
2017-May-12 23:56N 01°16' E 103°50'0 0.0
2017-May-12 23:29N 01°16' E 103°50'0 0.0
2017-May-12 22:56N 01°16' E 103°50'0 0.0
2017-May-12 22:20N 01°16' E 103°50'0 0.0
2017-May-12 21:56N 01°16' E 103°50'0 0.0
2017-May-12 21:26N 01°16' E 103°50'0 0.0
2017-May-12 20:56N 01°16' E 103°50'0 0.0
2017-May-12 20:26N 01°16' E 103°50'0 0.0
2017-May-12 19:56N 01°16' E 103°50'0 0.0
2017-May-12 19:26N 01°16' E 103°50'0 0.0
2017-May-12 18:53N 01°16' E 103°50'0 0.0
2017-May-12 18:30N 01°16' E 103°50'1 1.4
2017-May-12 18:00N 01°16' E 103°51'3 6.6
2017-May-12 17:30N 01°14' E 103°53'3 6.5
2017-May-12 17:00N 01°15' E 103°56'4 9.1
2017-May-12 16:30N 01°16' E 104°01'3 5.5
2017-May-12 15:59N 01°16' E 104°04'  
2017-May-08 19:44N 22°21' E 120°02'417.9
2017-May-08 19:30N 22°24' E 120°05'917.9
2017-May-08 19:00N 22°31' E 120°11'714.3
2017-May-08 18:30N 22°33' E 120°19'0 0.7
2017-May-08 17:53N 22°34' E 120°19'0 0.0
2017-May-08 17:30N 22°34' E 120°19'0 0.0
2017-May-08 16:59N 22°34' E 120°19'0 0.0
2017-May-08 15:36N 22°34' E 120°19'0 0.0
2017-May-08 14:35N 22°34' E 120°19'0 0.0
2017-May-08 14:00N 22°34' E 120°19'0 0.0
2017-May-08 12:35N 22°34' E 120°19'0 0.0
2017-May-08 12:17N 22°34' E 120°19'0 0.0
2017-May-08 11:59N 22°34' E 120°19'0 0.0
2017-May-08 11:29N 22°34' E 120°19'0 0.0
2017-May-08 10:59N 22°34' E 120°19'0 0.0
2017-May-08 10:30N 22°34' E 120°19'0 0.0
2017-May-08 09:59N 22°34' E 120°19'0 0.0
2017-May-08 09:30N 22°34' E 120°19'0 0.0
2017-May-08 09:00N 22°34' E 120°19'0 0.0
2017-May-08 08:29N 22°34' E 120°19'0 0.0
2017-May-08 07:59N 22°34' E 120°19'0 0.0
2017-May-08 07:29N 22°34' E 120°19'0 0.0
2017-May-08 07:00N 22°34' E 120°19'0 0.0
2017-May-08 06:29N 22°34' E 120°19'0 0.0
2017-May-08 05:59N 22°34' E 120°19'0 0.0
2017-May-08 05:29N 22°34' E 120°19'0 0.0
2017-May-08 05:00N 22°34' E 120°19'  
Track history (hours):
 
Tides and Currents Weather Stations Pressure Air Temp Water Temp Dewpoint Dewpoint Depression Visibility Wind Speed Wind Dir Waves Ship Positions

CSCL Fuzhou

Last reported at 2017-May-18 04:39 UTC. Time now 2017-May-23 17:03 UTC.
Position N 01°14' E 104°01'.

Length 207.4 m; beam 29.8 m; draft 11.4 m.

Type: Ship (hazmat cat A). MMSI: 636016483.

Date/timePositionNaut miles runAvg speedWind from/ knotsBaromVisibWave heightAir tempDewpointWater temp
2017-May-18 04:39N 01°14' E 104°01'318.1
2017-May-18 04:28N 01°13' E 103°58'818.2
2017-May-18 04:00N 01°11' E 103°50'918.9
2017-May-18 03:30N 01°05' E 103°42'714.9
2017-May-18 03:00N 01°05' E 103°35'815.4
2017-May-18 02:30N 01°12' E 103°32'612.9
2017-May-18 02:01N 01°19' E 103°33'3 7.0
2017-May-18 01:30N 01°22' E 103°32'0 0.2
2017-May-18 00:45N 01°22' E 103°33'0 0.0
2017-May-18 00:21N 01°22' E 103°33'0 0.0
2017-May-17 23:51N 01°22' E 103°33'0 0.0
2017-May-17 23:27N 01°22' E 103°33'0 0.0
2017-May-17 22:48N 01°22' E 103°33'0 0.0
2017-May-17 22:18N 01°22' E 103°33'0 0.0
2017-May-17 21:57N 01°22' E 103°33'0 0.0
2017-May-17 21:30N 01°22' E 103°33'0 0.0
2017-May-17 20:57N 01°22' E 103°33'0 0.0
2017-May-17 20:30N 01°22' E 103°33'0 0.0
2017-May-17 19:57N 01°22' E 103°33'0 0.0
2017-May-17 19:27N 01°22' E 103°33'0 0.0
2017-May-17 18:12N 01°22' E 103°33'0 0.0
2017-May-17 17:57N 01°22' E 103°33'0 0.0
2017-May-17 17:30N 01°22' E 103°33'0 0.0
2017-May-17 16:57N 01°22' E 103°33'0 0.0
2017-May-17 16:30N 01°22' E 103°33'0 0.0
2017-May-17 15:45N 01°22' E 103°33'0 0.0
2017-May-17 15:27N 01°22' E 103°33'0 0.0
2017-May-17 14:51N 01°22' E 103°33'0 0.0
2017-May-17 14:24N 01°22' E 103°33'0 0.0
2017-May-17 13:30N 01°22' E 103°33'0 0.0
2017-May-17 12:57N 01°22' E 103°33'0 0.0
2017-May-17 12:24N 01°22' E 103°33'0 0.0
2017-May-17 11:57N 01°22' E 103°33'0 0.0
2017-May-17 11:27N 01°22' E 103°33'0 0.0
2017-May-17 10:54N 01°22' E 103°33'0 0.2
2017-May-17 10:30N 01°22' E 103°33'0 0.4
2017-May-17 09:53N 01°22' E 103°33'0 0.0
2017-May-17 09:26N 01°22' E 103°33'0 0.0
2017-May-17 08:59N 01°22' E 103°33'0 0.0
2017-May-17 08:29N 01°22' E 103°33'0 0.0
2017-May-17 07:56N 01°22' E 103°33'0 0.0
2017-May-17 07:26N 01°22' E 103°33'0 0.0
2017-May-17 06:59N 01°22' E 103°33'0 0.0
2017-May-17 05:50N 01°22' E 103°33'0 0.0
2017-May-17 05:23N 01°22' E 103°33'0 0.0
2017-May-17 04:26N 01°22' E 103°33'0 0.0
2017-May-17 03:56N 01°22' E 103°33'0 0.0
2017-May-17 03:11N 01°22' E 103°33'0 0.0
2017-May-17 02:59N 01°22' E 103°33'0 0.0
2017-May-17 02:29N 01°22' E 103°33'0 0.0
2017-May-17 01:59N 01°22' E 103°33'0 0.7
2017-May-17 01:30N 01°22' E 103°33'5 9.7
2017-May-17 01:00N 01°17' E 103°33'510.7
2017-May-17 00:30N 01°12' E 103°31'4 8.1
2017-May-16 23:59N 01°11' E 103°27'3 6.3
2017-May-16 23:27N 01°12' E 103°24'0 0.5
2017-May-16 23:00N 01°12' E 103°24'2 4.6
2017-May-16 22:30N 01°14' E 103°23'4 7.6
2017-May-16 22:00N 01°16' E 103°20'2014.3
2017-May-16 20:37N 01°28' E 103°04'216.1
2017-May-16 20:29N 01°29' E 103°02'3516.2
2017-May-16 18:20N 01°46' E 102°32'516.7
2017-May-16 18:00N 01°48' E 102°27'816.9
2017-May-16 17:30N 01°52' E 102°19'23416.2
2017-May-16 03:01N 05°06' E 100°07'115.8
2017-May-16 02:58N 05°07' E 100°07'715.6
2017-May-16 02:30N 05°14' E 100°05'815.8
2017-May-16 02:00N 05°22' E 100°05'916.8
2017-May-16 01:27N 05°31' E 100°06'1213.0
2017-May-16 00:32N 05°31' E 100°18'112.6
2017-May-16 00:26N 05°30' E 100°19'410.3
2017-May-16 00:00N 05°26' E 100°21'1 1.3
2017-May-15 23:04N 05°25' E 100°22'0 0.0
2017-May-15 22:58N 05°25' E 100°22'0 0.0
2017-May-15 22:28N 05°25' E 100°22'0 0.0
2017-May-15 21:58N 05°25' E 100°22'0 0.0
2017-May-15 21:28N 05°25' E 100°22'0 0.0
2017-May-15 20:52N 05°25' E 100°22'0 0.0
2017-May-15 20:22N 05°25' E 100°22'0 0.0
2017-May-15 19:52N 05°25' E 100°22'0 0.0
2017-May-15 19:04N 05°25' E 100°22'0 0.0
2017-May-15 17:40N 05°25' E 100°22'0 0.0
2017-May-15 17:04N 05°25' E 100°22'0 0.0
2017-May-15 16:52N 05°25' E 100°22'0 0.0
2017-May-15 16:28N 05°25' E 100°22'0 0.0
2017-May-15 15:58N 05°25' E 100°22'0 0.0
2017-May-15 15:28N 05°25' E 100°22'0 0.0
2017-May-15 14:58N 05°25' E 100°22'0 0.0
2017-May-15 11:40N 05°25' E 100°22'0 0.0
2017-May-15 10:52N 05°25' E 100°22'0 0.0
2017-May-15 10:10N 05°25' E 100°22'0 0.0
2017-May-15 09:58N 05°25' E 100°22'0 0.0
2017-May-15 09:04N 05°25' E 100°22'0 0.0
2017-May-15 08:52N 05°25' E 100°22'0 0.0
2017-May-15 08:28N 05°25' E 100°22'0 0.0
2017-May-15 07:04N 05°25' E 100°22'0 0.0
2017-May-15 06:34N 05°25' E 100°22'0 0.0
2017-May-15 06:28N 05°25' E 100°22'0 0.0
2017-May-15 05:58N 05°25' E 100°22'0 0.0
2017-May-15 04:34N 05°25' E 100°22'0 0.1
2017-May-15 04:28N 05°25' E 100°22'0 0.0
2017-May-15 03:52N 05°25' E 100°22'0 0.0
2017-May-15 03:28N 05°25' E 100°22'0 0.0
2017-May-15 01:04N 05°25' E 100°22'0 0.0
2017-May-15 00:58N 05°25' E 100°22'0 0.0
2017-May-15 00:28N 05°25' E 100°22'0 0.0
2017-May-14 23:22N 05°25' E 100°22'0 0.5
2017-May-14 23:00N 05°25' E 100°22'3 6.1
2017-May-14 22:30N 05°28' E 100°21'611.0
2017-May-14 21:59N 05°33' E 100°17'713.5
2017-May-14 21:30N 05°35' E 100°11'910.8
2017-May-14 20:38N 05°28' E 100°04'214.9
2017-May-14 20:30N 05°26' E 100°04'2818.2
2017-May-14 18:56N 04°58' E 100°09'220 7.8
2017-May-13 14:52N 01°58' E 102°15'616.6
2017-May-13 14:29N 01°55' E 102°21'8017.5
2017-May-13 09:56N 01°13' E 103°29'818.5
2017-May-13 09:31N 01°11' E 103°37'917.6
2017-May-13 09:00N 01°09' E 103°45'816.2
2017-May-13 08:30N 01°13' E 103°52'3 6.8
2017-May-13 08:00N 01°16' E 103°50'0 0.2
2017-May-13 07:23N 01°16' E 103°50'0 0.0
2017-May-13 06:56N 01°16' E 103°50'0 0.0
2017-May-13 06:26N 01°16' E 103°50'0 0.0
2017-May-13 05:56N 01°16' E 103°50'0 0.0
2017-May-13 05:26N 01°16' E 103°50'0 0.0
2017-May-13 04:56N 01°16' E 103°50'0 0.0
2017-May-13 04:26N 01°16' E 103°50'0 0.0
2017-May-13 03:59N 01°16' E 103°50'0 0.0
2017-May-13 03:26N 01°16' E 103°50'0 0.0
2017-May-13 02:56N 01°16' E 103°50'0 0.0
2017-May-13 02:20N 01°16' E 103°50'0 0.0
2017-May-13 01:56N 01°16' E 103°50'0 0.0
2017-May-13 01:29N 01°16' E 103°50'0 0.0
2017-May-13 00:59N 01°16' E 103°50'0 0.0
2017-May-13 00:20N 01°16' E 103°50'0 0.0
2017-May-12 23:56N 01°16' E 103°50'0 0.0
2017-May-12 23:29N 01°16' E 103°50'0 0.0
2017-May-12 22:56N 01°16' E 103°50'0 0.0
2017-May-12 22:20N 01°16' E 103°50'0 0.0
2017-May-12 21:56N 01°16' E 103°50'0 0.0
2017-May-12 21:26N 01°16' E 103°50'0 0.0
2017-May-12 20:56N 01°16' E 103°50'0 0.0
2017-May-12 20:26N 01°16' E 103°50'0 0.0
2017-May-12 19:56N 01°16' E 103°50'0 0.0
2017-May-12 19:26N 01°16' E 103°50'0 0.0
2017-May-12 18:53N 01°16' E 103°50'0 0.0
2017-May-12 18:30N 01°16' E 103°50'1 1.4
2017-May-12 18:00N 01°16' E 103°51'3 6.6
2017-May-12 17:30N 01°14' E 103°53'3 6.5
2017-May-12 17:00N 01°15' E 103°56'4 9.1
2017-May-12 16:30N 01°16' E 104°01'3 5.5
2017-May-12 15:59N 01°16' E 104°04'  
2017-May-08 19:44N 22°21' E 120°02'417.9
2017-May-08 19:30N 22°24' E 120°05'917.9
2017-May-08 19:00N 22°31' E 120°11'714.3
2017-May-08 18:30N 22°33' E 120°19'0 0.7
2017-May-08 17:53N 22°34' E 120°19'0 0.0
2017-May-08 17:30N 22°34' E 120°19'0 0.0
2017-May-08 16:59N 22°34' E 120°19'0 0.0
2017-May-08 15:36N 22°34' E 120°19'0 0.0
2017-May-08 14:35N 22°34' E 120°19'0 0.0
2017-May-08 14:00N 22°34' E 120°19'0 0.0
2017-May-08 12:35N 22°34' E 120°19'0 0.0
2017-May-08 12:17N 22°34' E 120°19'0 0.0
2017-May-08 11:59N 22°34' E 120°19'0 0.0
2017-May-08 11:29N 22°34' E 120°19'0 0.0
2017-May-08 10:59N 22°34' E 120°19'0 0.0
2017-May-08 10:30N 22°34' E 120°19'0 0.0
2017-May-08 09:59N 22°34' E 120°19'0 0.0
2017-May-08 09:30N 22°34' E 120°19'0 0.0
2017-May-08 09:00N 22°34' E 120°19'0 0.0
2017-May-08 08:29N 22°34' E 120°19'0 0.0
2017-May-08 07:59N 22°34' E 120°19'0 0.0
2017-May-08 07:29N 22°34' E 120°19'0 0.0
2017-May-08 07:00N 22°34' E 120°19'0 0.0
2017-May-08 06:29N 22°34' E 120°19'0 0.0
2017-May-08 05:59N 22°34' E 120°19'0 0.0
2017-May-08 05:29N 22°34' E 120°19'0 0.0
2017-May-08 05:00N 22°34' E 120°19'  

Dump ship's entire track history